createdAt,value
2017-12-08T00:01:58.674Z,80.50
2017-12-08T00:04:26.609Z,80.50
2017-12-08T00:06:54.061Z,80.50
2017-12-08T00:09:21.628Z,80.40
2017-12-08T00:11:49.079Z,80.50
2017-12-08T00:14:16.543Z,80.40
2017-12-08T00:16:43.975Z,80.30
2017-12-08T00:19:11.471Z,80.10
2017-12-08T00:21:39.028Z,80.10
2017-12-08T00:24:06.493Z,79.80
2017-12-08T00:26:33.940Z,79.70
2017-12-08T00:29:01.379Z,79.80
2017-12-08T00:31:28.865Z,79.50
2017-12-08T00:33:56.299Z,79.80
2017-12-08T00:36:24.090Z,79.80
2017-12-08T00:38:51.952Z,79.90
2017-12-08T00:41:19.411Z,79.90
2017-12-08T00:43:46.959Z,80.10
2017-12-08T00:46:14.864Z,80.30
2017-12-08T00:48:42.368Z,80.30
2017-12-08T00:51:09.936Z,80.40
2017-12-08T00:53:37.909Z,80.40
2017-12-08T00:56:06.149Z,80.40
2017-12-08T00:58:33.889Z,80.40
2017-12-08T01:01:01.355Z,80.60
2017-12-08T01:03:29.140Z,80.60
2017-12-08T01:05:56.555Z,80.70
2017-12-08T01:08:24.403Z,81.00
2017-12-08T01:10:51.888Z,81.00
2017-12-08T01:13:19.492Z,81.10
2017-12-08T01:15:47.187Z,81.10
2017-12-08T01:18:14.840Z,81.10
2017-12-08T01:20:42.306Z,81.20
2017-12-08T01:23:09.776Z,81.70
2017-12-08T01:25:37.200Z,81.70
2017-12-08T01:28:05.112Z,81.80
2017-12-08T01:30:32.840Z,81.90
2017-12-08T01:33:00.525Z,82.10
2017-12-08T01:35:28.199Z,82.30
2017-12-08T01:37:55.943Z,82.40
2017-12-08T01:40:23.429Z,82.50
2017-12-08T01:42:50.889Z,82.50
2017-12-08T01:45:18.504Z,82.60
2017-12-08T01:47:46.349Z,78.90
2017-12-08T01:50:13.914Z,78.90
2017-12-08T01:52:41.495Z,76.60
2017-12-08T01:55:09.354Z,74.60
2017-12-08T01:57:36.852Z,74.60
2017-12-08T02:00:04.508Z,74.90
2017-12-08T02:02:32.373Z,75.80
2017-12-08T02:05:00.380Z,75.80
2017-12-08T02:07:27.854Z,75.80
2017-12-08T02:09:55.335Z,76.00
2017-12-08T02:12:22.772Z,76.10
2017-12-08T02:14:50.271Z,76.60
2017-12-08T02:17:17.837Z,77.00
2017-12-08T02:19:45.360Z,77.00
2017-12-08T02:22:12.808Z,77.60
2017-12-08T02:24:40.286Z,77.40
2017-12-08T02:27:08.074Z,77.30
2017-12-08T02:29:35.928Z,77.00
2017-12-08T02:32:03.445Z,76.70
2017-12-08T02:34:30.961Z,76.60
2017-12-08T02:36:58.425Z,76.60
2017-12-08T02:39:26.138Z,76.40
2017-12-08T02:41:54.154Z,76.50
2017-12-08T02:44:21.805Z,76.50
2017-12-08T02:46:49.861Z,76.60
2017-12-08T02:49:17.720Z,76.70
2017-12-08T02:51:45.228Z,76.70
2017-12-08T02:54:12.739Z,76.70
2017-12-08T02:56:40.394Z,76.60
2017-12-08T02:59:07.914Z,76.70
2017-12-08T03:01:35.475Z,76.60
2017-12-08T03:04:03.249Z,76.60
2017-12-08T03:06:30.762Z,76.60
2017-12-08T03:08:58.203Z,76.40
2017-12-08T03:11:25.734Z,76.20
2017-12-08T03:13:53.324Z,75.90
2017-12-08T03:16:20.864Z,75.80
2017-12-08T03:18:48.763Z,75.90
2017-12-08T03:21:16.605Z,76.00
2017-12-08T03:23:44.442Z,76.00
2017-12-08T03:26:12.308Z,75.60
2017-12-08T03:28:39.878Z,75.60
2017-12-08T03:31:07.864Z,75.50
2017-12-08T03:33:35.469Z,75.50
2017-12-08T03:36:03.005Z,75.20
2017-12-08T03:38:30.536Z,75.10
2017-12-08T03:40:58.565Z,74.90
2017-12-08T03:43:26.058Z,74.90
2017-12-08T03:45:53.572Z,74.70
2017-12-08T03:48:21.013Z,74.80
2017-12-08T03:50:48.937Z,74.50
2017-12-08T03:53:16.438Z,74.50
2017-12-08T03:55:44.500Z,74.70
2017-12-08T03:58:12.031Z,74.60
2017-12-08T04:00:40.101Z,74.70
2017-12-08T04:03:07.597Z,74.50
2017-12-08T04:05:35.521Z,74.10
2017-12-08T04:08:03.019Z,74.00
2017-12-08T04:10:30.468Z,74.20
2017-12-08T04:12:58.122Z,73.90
2017-12-08T04:15:25.694Z,73.90
2017-12-08T04:17:53.168Z,73.70
2017-12-08T04:20:20.629Z,73.40
2017-12-08T04:22:48.123Z,73.20
2017-12-08T04:25:15.976Z,73.40
2017-12-08T04:27:43.846Z,73.40
2017-12-08T04:30:11.379Z,73.50
2017-12-08T04:32:38.890Z,73.50
2017-12-08T04:35:06.394Z,73.30
2017-12-08T04:37:33.905Z,73.20
2017-12-08T04:40:01.357Z,73.40
2017-12-08T04:42:29.010Z,73.40
2017-12-08T04:44:56.655Z,73.20
2017-12-08T04:47:24.136Z,73.40
2017-12-08T04:49:51.592Z,73.50
2017-12-08T04:52:19.184Z,73.70
2017-12-08T04:54:46.614Z,73.80
2017-12-08T04:57:14.088Z,73.80
2017-12-08T04:59:41.545Z,73.80
2017-12-08T05:02:09.025Z,74.20
2017-12-08T05:04:36.720Z,74.30
2017-12-08T05:07:04.762Z,74.00
2017-12-08T05:09:32.232Z,74.00
2017-12-08T05:11:59.700Z,73.80
2017-12-08T05:14:27.146Z,73.80
2017-12-08T05:16:54.603Z,73.70
2017-12-08T05:19:22.348Z,73.60
2017-12-08T05:21:50.019Z,73.40
2017-12-08T05:24:17.520Z,73.20
2017-12-08T05:26:44.948Z,73.20
2017-12-08T05:29:12.709Z,73.20
2017-12-08T05:31:40.211Z,73.40
2017-12-08T05:34:07.685Z,73.60
2017-12-08T05:36:36.006Z,73.80
2017-12-08T05:39:03.435Z,74.20
2017-12-08T05:41:31.351Z,74.20
2017-12-08T05:43:58.803Z,74.20
2017-12-08T05:46:26.227Z,74.20
2017-12-08T05:48:54.079Z,73.80
2017-12-08T05:51:21.516Z,73.80
2017-12-08T05:53:48.951Z,73.20
2017-12-08T05:56:16.625Z,72.80
2017-12-08T05:58:44.039Z,73.00
2017-12-08T06:01:11.492Z,72.60
2017-12-08T06:03:39.055Z,72.60
2017-12-08T06:06:06.589Z,72.60
2017-12-08T06:08:34.033Z,72.50
2017-12-08T06:11:01.461Z,72.70
2017-12-08T06:13:29.708Z,72.30
2017-12-08T06:15:57.160Z,72.30
2017-12-08T06:18:24.608Z,72.40
2017-12-08T06:20:52.137Z,72.40
2017-12-08T06:23:19.536Z,72.60
2017-12-08T06:25:47.004Z,72.80
2017-12-08T06:28:14.864Z,72.80
2017-12-08T06:30:42.324Z,72.80
2017-12-08T06:33:09.986Z,73.10
2017-12-08T06:35:37.452Z,72.90
2017-12-08T06:38:05.009Z,72.90
2017-12-08T06:40:32.746Z,72.60
2017-12-08T06:43:00.627Z,72.50
2017-12-08T06:45:28.921Z,72.30
2017-12-08T06:47:56.780Z,72.20
2017-12-08T06:50:24.979Z,72.00
2017-12-08T06:52:52.445Z,72.00
2017-12-08T06:55:20.267Z,72.20
2017-12-08T06:57:48.119Z,72.70
2017-12-08T07:00:16.486Z,72.70
2017-12-08T07:02:44.011Z,72.80
2017-12-08T07:05:11.846Z,73.10
2017-12-08T07:07:39.804Z,73.10
2017-12-08T07:10:07.463Z,73.10
2017-12-08T07:12:34.947Z,73.10
2017-12-08T07:15:02.382Z,73.40
2017-12-08T07:17:29.921Z,72.80
2017-12-08T07:19:57.571Z,73.10
2017-12-08T07:22:26.358Z,73.10
2017-12-08T07:24:54.049Z,72.90
2017-12-08T07:27:21.528Z,72.70
2017-12-08T07:29:49.295Z,72.70
2017-12-08T07:32:16.787Z,72.50
2017-12-08T07:34:44.238Z,72.50
2017-12-08T07:37:11.689Z,72.50
2017-12-08T07:39:39.260Z,72.60
2017-12-08T07:42:06.707Z,72.50
2017-12-08T07:44:34.143Z,72.30
2017-12-08T07:47:01.577Z,72.10
2017-12-08T07:49:29.625Z,72.10
2017-12-08T07:51:57.124Z,72.10
2017-12-08T07:54:25.086Z,72.20
2017-12-08T07:56:52.687Z,72.20
2017-12-08T07:59:20.169Z,72.20
2017-12-08T08:01:47.824Z,72.10
2017-12-08T08:04:15.481Z,72.50
2017-12-08T08:06:42.936Z,72.20
2017-12-08T08:09:10.425Z,71.80
2017-12-08T08:11:37.902Z,71.80
2017-12-08T08:14:05.367Z,71.70
2017-12-08T08:16:32.809Z,71.70
2017-12-08T08:19:00.274Z,72.00
2017-12-08T08:21:27.848Z,71.80
2017-12-08T08:23:55.278Z,71.80
2017-12-08T08:26:23.590Z,71.80
2017-12-08T08:28:51.012Z,71.50
2017-12-08T08:31:19.093Z,71.80
2017-12-08T08:33:46.526Z,71.50
2017-12-08T08:36:14.397Z,71.20
2017-12-08T08:38:42.525Z,71.40
2017-12-08T08:41:09.990Z,71.40
2017-12-08T08:43:37.449Z,70.90
2017-12-08T08:46:04.902Z,71.10
2017-12-08T08:48:32.353Z,71.00
2017-12-08T08:50:59.888Z,70.40
2017-12-08T08:53:27.807Z,70.10
2017-12-08T08:55:55.353Z,70.10
2017-12-08T08:58:23.735Z,69.90
2017-12-08T09:00:51.195Z,70.10
2017-12-08T09:03:18.960Z,70.20
2017-12-08T09:05:46.459Z,69.70
2017-12-08T09:08:14.003Z,69.40
2017-12-08T09:10:41.476Z,69.50
2017-12-08T09:13:08.924Z,69.60
2017-12-08T09:15:36.478Z,69.00
2017-12-08T09:18:03.943Z,68.90
2017-12-08T09:20:31.384Z,68.90
2017-12-08T09:22:58.842Z,69.30
2017-12-08T09:25:26.422Z,68.80
2017-12-08T09:27:53.957Z,68.50
2017-12-08T09:30:21.797Z,68.40
2017-12-08T09:32:49.264Z,68.40
2017-12-08T09:35:16.906Z,67.90
2017-12-08T09:37:44.474Z,67.80
2017-12-08T09:40:11.937Z,67.30
2017-12-08T09:42:39.576Z,67.30
2017-12-08T09:45:07.476Z,67.80
2017-12-08T09:47:35.151Z,67.80
2017-12-08T09:50:02.908Z,67.10
2017-12-08T09:52:30.345Z,67.60
2017-12-08T09:54:57.896Z,67.30
2017-12-08T09:57:25.483Z,66.40
2017-12-08T09:59:53.140Z,66.20
2017-12-08T10:02:20.704Z,66.70
2017-12-08T10:04:48.163Z,66.40
2017-12-08T10:07:15.684Z,66.10
2017-12-08T10:09:43.215Z,65.90
2017-12-08T10:12:11.163Z,65.20
2017-12-08T10:14:38.849Z,65.20
2017-12-08T10:17:06.303Z,64.90
2017-12-08T10:19:34.725Z,64.90
2017-12-08T10:22:02.216Z,64.30
2017-12-08T10:24:30.038Z,64.80
2017-12-08T10:26:57.492Z,64.80
2017-12-08T10:29:24.985Z,64.90
2017-12-08T10:31:52.431Z,64.90
2017-12-08T10:34:19.876Z,64.20
2017-12-08T10:36:47.354Z,64.30
2017-12-08T10:39:14.820Z,64.30
2017-12-08T10:41:42.301Z,64.00
2017-12-08T10:44:09.823Z,64.50
2017-12-08T10:46:37.275Z,63.80
2017-12-08T10:49:04.746Z,63.50
2017-12-08T10:51:32.188Z,63.50
2017-12-08T10:54:00.065Z,63.00
2017-12-08T10:56:27.631Z,63.00
2017-12-08T10:58:55.092Z,63.00
2017-12-08T11:01:25.319Z,62.80
2017-12-08T11:03:52.783Z,62.70
2017-12-08T11:06:20.258Z,61.90
2017-12-08T11:08:47.693Z,62.40
2017-12-08T11:11:15.179Z,62.60
2017-12-08T11:13:42.668Z,62.60
2017-12-08T11:16:10.158Z,61.80
2017-12-08T11:18:37.974Z,60.60
2017-12-08T11:21:05.399Z,60.60
2017-12-08T11:23:32.833Z,61.40
2017-12-08T11:26:00.274Z,62.40
2017-12-08T11:28:27.676Z,63.20
2017-12-08T11:30:55.516Z,64.70
2017-12-08T11:33:22.943Z,64.70
2017-12-08T11:35:50.381Z,64.60
2017-12-08T11:38:17.854Z,65.20
2017-12-08T11:40:45.341Z,65.40
2017-12-08T11:43:13.252Z,66.10
2017-12-08T11:45:41.093Z,67.10
2017-12-08T11:48:08.525Z,67.10
2017-12-08T11:50:35.948Z,67.50
2017-12-08T11:53:03.772Z,67.70
2017-12-08T11:55:31.364Z,67.70
2017-12-08T11:57:58.819Z,68.00
2017-12-08T12:00:26.255Z,68.60
2017-12-08T12:02:53.716Z,69.10
2017-12-08T12:05:21.182Z,68.80
2017-12-08T12:07:48.929Z,68.70
2017-12-08T12:10:16.508Z,69.10
2017-12-08T12:12:43.983Z,68.80
2017-12-08T12:15:11.412Z,69.10
2017-12-08T12:17:38.901Z,69.40
2017-12-08T12:20:06.643Z,69.80
2017-12-08T12:22:34.543Z,70.20
2017-12-08T12:25:02.079Z,70.20
2017-12-08T12:27:29.552Z,70.30
2017-12-08T12:29:57.310Z,70.40
2017-12-08T12:32:24.759Z,70.90
2017-12-08T12:34:52.577Z,70.00
2017-12-08T12:37:20.038Z,70.00
2017-12-08T12:39:47.476Z,69.50
2017-12-08T12:42:14.918Z,68.10
2017-12-08T12:44:42.354Z,68.40
2017-12-08T12:47:10.169Z,67.20
2017-12-08T12:49:37.628Z,67.20
2017-12-08T12:52:06.141Z,67.00
2017-12-08T12:54:33.587Z,67.40
2017-12-08T12:57:01.342Z,67.60
2017-12-08T12:59:28.923Z,67.60
2017-12-08T13:01:56.396Z,67.90
2017-12-08T13:04:23.978Z,67.80
2017-12-08T13:06:51.414Z,68.10
2017-12-08T13:09:18.965Z,67.90
2017-12-08T13:11:46.388Z,67.90
2017-12-08T13:14:13.872Z,67.60
2017-12-08T13:16:41.443Z,67.30
2017-12-08T13:19:08.845Z,67.10
2017-12-08T13:21:36.298Z,67.50
2017-12-08T13:24:04.287Z,67.10
2017-12-08T13:26:32.113Z,65.50
2017-12-08T13:28:59.556Z,65.50
2017-12-08T13:31:26.997Z,65.70
2017-12-08T13:33:54.844Z,65.00
2017-12-08T13:36:22.316Z,65.00
2017-12-08T13:38:49.765Z,64.70
2017-12-08T13:41:17.198Z,64.50
2017-12-08T13:43:44.652Z,63.50
2017-12-08T13:46:12.115Z,62.90
2017-12-08T13:48:39.555Z,62.60
2017-12-08T13:51:07.044Z,62.40
2017-12-08T13:53:46.518Z,61.60
2017-12-08T13:56:26.101Z,62.20
2017-12-08T13:58:53.560Z,62.40
2017-12-08T14:01:21.238Z,61.70
2017-12-08T14:03:48.679Z,62.00
2017-12-08T14:06:16.202Z,61.50
2017-12-08T14:08:43.731Z,61.30
2017-12-08T14:11:11.225Z,61.40
2017-12-08T14:13:38.663Z,61.60
2017-12-08T14:16:06.108Z,61.50
2017-12-08T14:18:33.561Z,62.10
2017-12-08T14:21:01.172Z,62.60
2017-12-08T14:23:28.690Z,62.30
2017-12-08T14:25:56.109Z,62.10
2017-12-08T14:28:23.646Z,62.70
2017-12-08T14:30:51.138Z,62.50
2017-12-08T14:33:18.565Z,62.90
2017-12-08T14:35:46.009Z,63.10
2017-12-08T14:38:13.431Z,63.50
2017-12-08T14:40:41.266Z,63.60
2017-12-08T14:43:08.710Z,63.60
2017-12-08T14:45:36.214Z,63.60
2017-12-08T14:48:04.060Z,63.90
2017-12-08T14:50:31.488Z,63.90
2017-12-08T14:52:58.945Z,64.10
2017-12-08T14:55:26.567Z,63.80
2017-12-08T14:57:54.331Z,63.90
2017-12-08T15:00:21.777Z,64.40
2017-12-08T15:02:49.195Z,64.70
2017-12-08T15:05:16.626Z,64.60
2017-12-08T15:07:44.487Z,65.50
2017-12-08T15:10:11.916Z,65.50
2017-12-08T15:12:39.356Z,65.20
2017-12-08T15:15:07.313Z,65.30
2017-12-08T15:17:34.780Z,64.80
2017-12-08T15:20:02.281Z,64.90
2017-12-08T15:22:29.753Z,65.20
2017-12-08T15:24:58.845Z,65.30
2017-12-08T15:27:26.405Z,65.50
2017-12-08T15:29:54.020Z,65.50
2017-12-08T15:32:21.877Z,65.40
2017-12-08T15:34:49.702Z,65.60
2017-12-08T15:37:17.258Z,65.60
2017-12-08T15:39:44.812Z,65.50
2017-12-08T15:42:13.517Z,65.90
2017-12-08T15:44:40.961Z,66.00
2017-12-08T15:47:08.441Z,66.00
2017-12-08T15:49:36.097Z,66.10
2017-12-08T15:52:03.603Z,65.80
2017-12-08T15:54:31.146Z,66.10
2017-12-08T15:56:58.605Z,66.40
2017-12-08T15:59:26.060Z,66.40
2017-12-08T16:01:53.504Z,66.50
2017-12-08T16:04:21.039Z,66.50
2017-12-08T16:06:48.976Z,66.70
2017-12-08T16:09:16.446Z,66.70
2017-12-08T16:11:43.992Z,66.60
2017-12-08T16:14:11.423Z,66.40
2017-12-08T16:16:38.923Z,66.50
2017-12-08T16:19:06.362Z,66.60
2017-12-08T16:21:33.822Z,66.50
2017-12-08T16:24:01.288Z,66.20
2017-12-08T16:26:28.732Z,66.40
2017-12-08T16:28:56.167Z,65.90
2017-12-08T16:31:24.025Z,66.20
2017-12-08T16:33:51.451Z,66.20
2017-12-08T16:36:18.883Z,66.20
2017-12-08T16:38:46.552Z,65.80
2017-12-08T16:41:14.364Z,65.90
2017-12-08T16:43:41.811Z,65.90
2017-12-08T16:46:09.256Z,65.90
2017-12-08T16:48:36.715Z,66.10
2017-12-08T16:51:04.150Z,65.90
2017-12-08T16:53:31.620Z,65.80
2017-12-08T16:55:59.506Z,65.70
2017-12-08T16:58:26.934Z,65.70
2017-12-08T17:00:54.770Z,65.30
2017-12-08T17:03:22.234Z,65.30
2017-12-08T17:05:49.706Z,65.50
2017-12-08T17:08:17.184Z,65.60
2017-12-08T17:10:44.730Z,65.10
2017-12-08T17:13:12.194Z,65.00
2017-12-08T17:15:39.621Z,65.30
2017-12-08T17:18:07.099Z,65.00
2017-12-08T17:20:34.554Z,64.80
2017-12-08T17:23:01.996Z,65.00
2017-12-08T17:25:29.611Z,65.10
2017-12-08T17:27:57.039Z,65.20
2017-12-08T17:30:24.496Z,65.30
2017-12-08T17:32:51.920Z,65.40
2017-12-08T17:35:19.360Z,65.30
2017-12-08T17:40:37.679Z,65.60
2017-12-08T17:43:05.174Z,65.60
2017-12-08T17:45:32.612Z,65.60
2017-12-08T17:48:00.073Z,65.70
2017-12-08T17:50:27.569Z,65.70
2017-12-08T17:52:55.098Z,65.80
2017-12-08T17:55:22.511Z,65.40
2017-12-08T17:57:50.092Z,65.70
2017-12-08T18:00:17.628Z,65.40
2017-12-08T18:02:45.458Z,65.50
2017-12-08T18:05:12.912Z,65.50
2017-12-08T18:07:40.358Z,65.50
2017-12-08T18:10:07.809Z,65.70
2017-12-08T18:12:35.280Z,65.60
2017-12-08T18:15:02.724Z,65.70
2017-12-08T18:17:30.261Z,65.80
2017-12-08T18:19:57.697Z,65.70
2017-12-08T18:22:25.161Z,65.80
2017-12-08T18:24:52.578Z,65.70
2017-12-08T18:27:20.010Z,66.00
2017-12-08T18:29:47.871Z,66.80
2017-12-08T18:32:15.436Z,66.80
2017-12-08T18:34:43.016Z,66.50
2017-12-08T18:37:10.896Z,66.30
2017-12-08T18:39:38.776Z,66.90
2017-12-08T18:42:06.608Z,66.90
2017-12-08T18:44:34.066Z,68.60
2017-12-08T18:47:01.615Z,69.80
2017-12-08T18:49:29.071Z,71.20
2017-12-08T18:51:57.110Z,72.70
2017-12-08T18:54:24.564Z,73.40
2017-12-08T18:56:52.003Z,73.90
2017-12-08T18:59:19.843Z,73.90
2017-12-08T19:01:47.301Z,73.90
2017-12-08T19:04:14.740Z,73.90
2017-12-08T19:06:42.198Z,73.00
2017-12-08T19:09:09.668Z,73.00
2017-12-08T19:11:37.129Z,72.80
2017-12-08T19:14:04.603Z,72.70
2017-12-08T19:16:32.056Z,72.70
2017-12-08T19:18:59.494Z,72.00
2017-12-08T19:21:27.000Z,72.10
2017-12-08T19:23:54.459Z,71.90
2017-12-08T19:26:21.931Z,72.10
2017-12-08T19:28:49.459Z,72.00
2017-12-08T19:31:16.906Z,72.30
2017-12-08T19:33:44.413Z,72.40
2017-12-08T19:36:11.868Z,72.20
2017-12-08T19:38:39.338Z,72.20
2017-12-08T19:41:06.788Z,71.90
2017-12-08T19:43:34.254Z,71.70
2017-12-08T19:46:02.220Z,71.40
2017-12-08T19:48:29.660Z,71.30
2017-12-08T19:50:57.144Z,71.40
2017-12-08T19:53:24.597Z,71.30
2017-12-08T19:55:52.071Z,70.20
2017-12-08T19:58:19.528Z,70.70
2017-12-08T20:00:47.099Z,71.20
2017-12-08T20:03:14.567Z,71.80
2017-12-08T20:05:41.996Z,72.20
2017-12-08T20:08:09.456Z,72.30
2017-12-08T20:10:36.939Z,72.30
2017-12-08T20:13:04.745Z,72.60
2017-12-08T20:15:32.685Z,72.70
2017-12-08T20:18:00.143Z,72.70
2017-12-08T20:20:27.610Z,72.40
2017-12-08T20:22:55.072Z,72.20
2017-12-08T20:25:22.514Z,72.10
2017-12-08T20:27:49.957Z,72.10
2017-12-08T20:30:17.373Z,72.00
2017-12-08T20:32:44.852Z,72.10
2017-12-08T20:35:19.055Z,72.10
2017-12-08T20:37:46.575Z,72.30
2017-12-08T20:40:13.998Z,72.30
2017-12-08T20:42:41.843Z,72.60
2017-12-08T20:45:09.292Z,72.60
2017-12-08T20:47:36.742Z,72.20
2017-12-08T20:50:04.177Z,72.00
2017-12-08T20:52:31.615Z,72.10
2017-12-08T20:54:59.429Z,72.10
2017-12-08T20:57:27.733Z,72.00
2017-12-08T20:59:55.163Z,72.10
2017-12-08T21:02:22.620Z,72.00
2017-12-08T21:04:50.068Z,71.80
2017-12-08T21:07:17.486Z,71.80
2017-12-08T21:09:45.430Z,71.60
2017-12-08T21:12:12.882Z,71.60
2017-12-08T21:14:40.311Z,71.50
2017-12-08T21:17:07.797Z,71.40
2017-12-08T21:19:35.243Z,71.40
2017-12-08T21:22:03.439Z,71.20
2017-12-08T21:24:30.884Z,71.20
2017-12-08T21:26:58.363Z,71.10
2017-12-08T21:29:26.418Z,71.10
2017-12-08T21:31:53.880Z,70.80
2017-12-08T21:34:21.399Z,70.60
2017-12-08T21:36:48.821Z,70.50
2017-12-08T21:39:16.276Z,70.50
2017-12-08T21:41:43.699Z,70.20
2017-12-08T21:44:11.536Z,70.10
2017-12-08T21:46:38.974Z,70.10
2017-12-08T21:49:06.401Z,70.10
2017-12-08T21:51:34.238Z,70.30
2017-12-08T21:54:02.925Z,70.10
2017-12-08T21:56:30.364Z,70.10
2017-12-08T21:58:57.810Z,70.00
2017-12-08T22:01:25.242Z,70.00
2017-12-08T22:03:53.068Z,69.80
2017-12-08T22:06:20.519Z,69.80
2017-12-08T22:08:47.945Z,70.10
2017-12-08T22:11:15.385Z,70.00
2017-12-08T22:13:43.399Z,70.30
2017-12-08T22:16:10.880Z,70.50
2017-12-08T22:18:38.332Z,70.60
2017-12-08T22:21:05.791Z,70.50
2017-12-08T22:23:33.267Z,70.60
2017-12-08T22:26:00.710Z,70.70
2017-12-08T22:28:29.013Z,70.80
2017-12-08T22:30:56.452Z,70.70
2017-12-08T22:33:23.916Z,70.80
2017-12-08T22:35:51.364Z,70.60
2017-12-08T22:38:19.226Z,70.60
2017-12-08T22:40:46.670Z,70.70
2017-12-08T22:43:14.484Z,70.10
2017-12-08T22:45:42.620Z,70.10
2017-12-08T22:48:10.469Z,70.40
2017-12-08T22:50:37.996Z,70.40
2017-12-08T22:53:05.439Z,70.20
2017-12-08T22:55:33.544Z,70.00
2017-12-08T22:58:00.984Z,69.80
2017-12-08T23:00:28.428Z,69.90
2017-12-08T23:02:55.928Z,70.00
2017-12-08T23:05:23.375Z,69.60
2017-12-08T23:07:50.839Z,69.90
2017-12-08T23:10:18.302Z,69.80
2017-12-08T23:12:45.742Z,69.40
2017-12-08T23:15:13.159Z,69.20
2017-12-08T23:17:40.589Z,69.30
2017-12-08T23:20:08.037Z,69.30
2017-12-08T23:22:35.500Z,69.20
2017-12-08T23:25:02.964Z,69.30
2017-12-08T23:40:37.824Z,68.60
2017-12-08T23:43:05.389Z,68.30
2017-12-08T23:45:32.799Z,68.20
2017-12-08T23:48:00.260Z,68.20
2017-12-08T23:50:27.732Z,68.80
2017-12-08T23:52:55.176Z,68.80
2017-12-08T23:55:22.680Z,68.80
2017-12-08T23:57:50.151Z,68.90
